sensor_id;sensor_type;location;lat;lon;timestamp;P1;durP1;ratioP1;P2;durP2;ratioP2
6651;SDS011;3362;50.892;10.692;2023-02-08T00:01:21;6.00;;;3.37;;
6651;SDS011;3362;50.892;10.692;2023-02-08T00:03:47;13.63;;;4.93;;
6651;SDS011;3362;50.892;10.692;2023-02-08T00:06:13;9.13;;;3.77;;
6651;SDS011;3362;50.892;10.692;2023-02-08T00:08:41;6.67;;;3.60;;
6651;SDS011;3362;50.892;10.692;2023-02-08T00:11:07;6.83;;;3.27;;
6651;SDS011;3362;50.892;10.692;2023-02-08T00:13:36;8.00;;;3.57;;
6651;SDS011;3362;50.892;10.692;2023-02-08T00:16:04;9.43;;;3.07;;
6651;SDS011;3362;50.892;10.692;2023-02-08T00:18:30;7.77;;;2.77;;
6651;SDS011;3362;50.892;10.692;2023-02-08T00:20:56;10.73;;;3.47;;
6651;SDS011;3362;50.892;10.692;2023-02-08T00:23:22;5.03;;;2.80;;
6651;SDS011;3362;50.892;10.692;2023-02-08T00:25:50;6.30;;;3.40;;
6651;SDS011;3362;50.892;10.692;2023-02-08T00:28:17;4.03;;;2.87;;
6651;SDS011;3362;50.892;10.692;2023-02-08T00:30:44;6.13;;;3.30;;
6651;SDS011;3362;50.892;10.692;2023-02-08T00:33:10;6.73;;;2.90;;
6651;SDS011;3362;50.892;10.692;2023-02-08T00:35:36;8.67;;;3.37;;
6651;SDS011;3362;50.892;10.692;2023-02-08T00:38:03;5.43;;;2.50;;
6651;SDS011;3362;50.892;10.692;2023-02-08T00:40:29;9.37;;;3.03;;
6651;SDS011;3362;50.892;10.692;2023-02-08T00:42:57;4.80;;;2.47;;
6651;SDS011;3362;50.892;10.692;2023-02-08T00:45:23;5.53;;;2.27;;
6651;SDS011;3362;50.892;10.692;2023-02-08T00:47:49;3.70;;;1.80;;
6651;SDS011;3362;50.892;10.692;2023-02-08T00:50:15;11.63;;;2.30;;
6651;SDS011;3362;50.892;10.692;2023-02-08T00:52:41;5.50;;;2.57;;
6651;SDS011;3362;50.892;10.692;2023-02-08T00:55:07;4.93;;;1.93;;
6651;SDS011;3362;50.892;10.692;2023-02-08T00:57:34;6.67;;;2.13;;
6651;SDS011;3362;50.892;10.692;2023-02-08T01:00:02;2.30;;;1.63;;
6651;SDS011;3362;50.892;10.692;2023-02-08T01:02:28;6.50;;;2.53;;
6651;SDS011;3362;50.892;10.692;2023-02-08T01:04:54;5.37;;;1.90;;
6651;SDS011;3362;50.892;10.692;2023-02-08T01:07:20;5.07;;;2.00;;
6651;SDS011;3362;50.892;10.692;2023-02-08T01:09:47;5.97;;;2.60;;
6651;SDS011;3362;50.892;10.692;2023-02-08T01:12:13;2.80;;;1.77;;
6651;SDS011;3362;50.892;10.692;2023-02-08T01:14:39;4.27;;;1.90;;
6651;SDS011;3362;50.892;10.692;2023-02-08T01:17:07;3.83;;;1.90;;
6651;SDS011;3362;50.892;10.692;2023-02-08T01:19:33;5.23;;;1.87;;
6651;SDS011;3362;50.892;10.692;2023-02-08T01:21:59;8.00;;;2.50;;
6651;SDS011;3362;50.892;10.692;2023-02-08T01:24:25;18.03;;;4.30;;
6651;SDS011;3362;50.892;10.692;2023-02-08T01:26:51;11.43;;;3.93;;
6651;SDS011;3362;50.892;10.692;2023-02-08T01:29:17;13.83;;;3.80;;
6651;SDS011;3362;50.892;10.692;2023-02-08T01:31:44;17.33;;;6.40;;
6651;SDS011;3362;50.892;10.692;2023-02-08T01:34:11;17.93;;;5.93;;
6651;SDS011;3362;50.892;10.692;2023-02-08T01:36:38;27.50;;;6.57;;
6651;SDS011;3362;50.892;10.692;2023-02-08T01:39:05;14.87;;;4.77;;
6651;SDS011;3362;50.892;10.692;2023-02-08T01:41:32;13.37;;;5.33;;
6651;SDS011;3362;50.892;10.692;2023-02-08T01:44:00;23.37;;;7.83;;
6651;SDS011;3362;50.892;10.692;2023-02-08T01:46:27;14.83;;;5.17;;
6651;SDS011;3362;50.892;10.692;2023-02-08T01:48:53;16.47;;;5.80;;
6651;SDS011;3362;50.892;10.692;2023-02-08T01:51:22;14.97;;;5.63;;
6651;SDS011;3362;50.892;10.692;2023-02-08T01:53:50;13.40;;;4.97;;
6651;SDS011;3362;50.892;10.692;2023-02-08T01:56:19;27.07;;;7.83;;
6651;SDS011;3362;50.892;10.692;2023-02-08T01:58:47;20.97;;;8.10;;
6651;SDS011;3362;50.892;10.692;2023-02-08T02:01:14;25.40;;;7.50;;
6651;SDS011;3362;50.892;10.692;2023-02-08T02:03:41;30.57;;;11.40;;
6651;SDS011;3362;50.892;10.692;2023-02-08T02:06:08;40.80;;;12.27;;
6651;SDS011;3362;50.892;10.692;2023-02-08T02:08:36;30.53;;;11.13;;
6651;SDS011;3362;50.892;10.692;2023-02-08T02:11:03;30.33;;;9.27;;
6651;SDS011;3362;50.892;10.692;2023-02-08T02:13:29;22.13;;;7.50;;
6651;SDS011;3362;50.892;10.692;2023-02-08T02:15:56;28.87;;;8.57;;
6651;SDS011;3362;50.892;10.692;2023-02-08T02:18:23;16.30;;;5.97;;
6651;SDS011;3362;50.892;10.692;2023-02-08T02:21:00;14.43;;;4.53;;
6651;SDS011;3362;50.892;10.692;2023-02-08T02:23:53;24.10;;;7.93;;
6651;SDS011;3362;50.892;10.692;2023-02-08T02:26:33;18.57;;;6.03;;
6651;SDS011;3362;50.892;10.692;2023-02-08T02:29:14;16.03;;;5.73;;
6651;SDS011;3362;50.892;10.692;2023-02-08T02:31:49;13.00;;;4.87;;
6651;SDS011;3362;50.892;10.692;2023-02-08T02:34:19;11.30;;;4.37;;
6651;SDS011;3362;50.892;10.692;2023-02-08T02:36:50;6.60;;;3.17;;
6651;SDS011;3362;50.892;10.692;2023-02-08T02:39:19;7.20;;;3.33;;
6651;SDS011;3362;50.892;10.692;2023-02-08T02:41:50;4.90;;;2.80;;
6651;SDS011;3362;50.892;10.692;2023-02-08T02:44:37;4.93;;;2.60;;
6651;SDS011;3362;50.892;10.692;2023-02-08T02:47:09;9.13;;;3.53;;
6651;SDS011;3362;50.892;10.692;2023-02-08T02:49:38;5.20;;;2.27;;
6651;SDS011;3362;50.892;10.692;2023-02-08T02:52:10;6.93;;;2.83;;
6651;SDS011;3362;50.892;10.692;2023-02-08T02:54:37;6.80;;;2.27;;
6651;SDS011;3362;50.892;10.692;2023-02-08T02:57:06;2.43;;;1.53;;
6651;SDS011;3362;50.892;10.692;2023-02-08T02:59:34;3.57;;;1.50;;
6651;SDS011;3362;50.892;10.692;2023-02-08T03:02:00;4.77;;;1.87;;
6651;SDS011;3362;50.892;10.692;2023-02-08T03:04:48;4.60;;;1.97;;
6651;SDS011;3362;50.892;10.692;2023-02-08T03:07:17;5.70;;;1.70;;
6651;SDS011;3362;50.892;10.692;2023-02-08T03:09:50;3.97;;;2.03;;
6651;SDS011;3362;50.892;10.692;2023-02-08T03:12:21;4.33;;;2.30;;
6651;SDS011;3362;50.892;10.692;2023-02-08T03:14:54;4.63;;;2.37;;
6651;SDS011;3362;50.892;10.692;2023-02-08T03:17:27;3.97;;;2.50;;
6651;SDS011;3362;50.892;10.692;2023-02-08T03:19:59;1.97;;;1.37;;
6651;SDS011;3362;50.892;10.692;2023-02-08T03:22:29;3.10;;;1.77;;
6651;SDS011;3362;50.892;10.692;2023-02-08T03:24:57;1.77;;;1.43;;
6651;SDS011;3362;50.892;10.692;2023-02-08T03:27:27;2.40;;;1.20;;
6651;SDS011;3362;50.892;10.692;2023-02-08T03:29:57;3.80;;;1.40;;
6651;SDS011;3362;50.892;10.692;2023-02-08T03:32:25;4.87;;;1.63;;
6651;SDS011;3362;50.892;10.692;2023-02-08T03:34:54;2.50;;;1.13;;
6651;SDS011;3362;50.892;10.692;2023-02-08T03:37:23;2.67;;;1.43;;
6651;SDS011;3362;50.892;10.692;2023-02-08T03:39:51;5.17;;;2.13;;
6651;SDS011;3362;50.892;10.692;2023-02-08T03:42:20;1.77;;;1.00;;
6651;SDS011;3362;50.892;10.692;2023-02-08T03:44:49;2.33;;;1.33;;
6651;SDS011;3362;50.892;10.692;2023-02-08T03:47:17;2.00;;;1.13;;
6651;SDS011;3362;50.892;10.692;2023-02-08T03:49:44;2.40;;;0.80;;
6651;SDS011;3362;50.892;10.692;2023-02-08T03:52:11;4.67;;;1.00;;
6651;SDS011;3362;50.892;10.692;2023-02-08T03:54:40;2.87;;;1.20;;
6651;SDS011;3362;50.892;10.692;2023-02-08T03:57:09;3.13;;;1.07;;
6651;SDS011;3362;50.892;10.692;2023-02-08T03:59:37;2.77;;;1.20;;
6651;SDS011;3362;50.892;10.692;2023-02-08T04:02:05;3.73;;;1.80;;
6651;SDS011;3362;50.892;10.692;2023-02-08T04:04:33;2.73;;;1.37;;
6651;SDS011;3362;50.892;10.692;2023-02-08T04:07:00;2.27;;;0.70;;
6651;SDS011;3362;50.892;10.692;2023-02-08T04:09:26;3.30;;;1.23;;
6651;SDS011;3362;50.892;10.692;2023-02-08T04:11:54;1.97;;;1.80;;
6651;SDS011;3362;50.892;10.692;2023-02-08T04:14:20;2.33;;;1.37;;
6651;SDS011;3362;50.892;10.692;2023-02-08T04:16:46;1.43;;;1.00;;
6651;SDS011;3362;50.892;10.692;2023-02-08T04:19:12;1.37;;;1.00;;
6651;SDS011;3362;50.892;10.692;2023-02-08T04:21:38;3.80;;;1.77;;
6651;SDS011;3362;50.892;10.692;2023-02-08T04:24:05;3.50;;;2.13;;
6651;SDS011;3362;50.892;10.692;2023-02-08T04:26:31;6.83;;;3.13;;
6651;SDS011;3362;50.892;10.692;2023-02-08T04:28:59;5.17;;;1.90;;
6651;SDS011;3362;50.892;10.692;2023-02-08T04:31:25;3.33;;;2.33;;
6651;SDS011;3362;50.892;10.692;2023-02-08T04:33:51;3.10;;;2.27;;
6651;SDS011;3362;50.892;10.692;2023-02-08T04:36:17;4.03;;;1.90;;
6651;SDS011;3362;50.892;10.692;2023-02-08T04:38:43;3.80;;;2.93;;
6651;SDS011;3362;50.892;10.692;2023-02-08T04:41:10;3.53;;;3.07;;
6651;SDS011;3362;50.892;10.692;2023-02-08T04:43:36;2.50;;;1.70;;
6651;SDS011;3362;50.892;10.692;2023-02-08T04:46:04;2.90;;;1.93;;
6651;SDS011;3362;50.892;10.692;2023-02-08T04:48:30;3.97;;;1.50;;
6651;SDS011;3362;50.892;10.692;2023-02-08T04:50:56;0.60;;;0.60;;
6651;SDS011;3362;50.892;10.692;2023-02-08T04:53:23;1.77;;;1.10;;
6651;SDS011;3362;50.892;10.692;2023-02-08T04:55:50;1.80;;;0.77;;
6651;SDS011;3362;50.892;10.692;2023-02-08T04:58:16;0.57;;;0.43;;
6651;SDS011;3362;50.892;10.692;2023-02-08T05:00:43;3.67;;;1.10;;
6651;SDS011;3362;50.892;10.692;2023-02-08T05:03:10;5.80;;;2.20;;
6651;SDS011;3362;50.892;10.692;2023-02-08T05:05:37;1.37;;;1.27;;
6651;SDS011;3362;50.892;10.692;2023-02-08T05:08:03;3.17;;;2.20;;
6651;SDS011;3362;50.892;10.692;2023-02-08T05:10:29;10.43;;;3.60;;
6651;SDS011;3362;50.892;10.692;2023-02-08T05:12:56;15.40;;;3.97;;
6651;SDS011;3362;50.892;10.692;2023-02-08T05:15:22;8.33;;;2.73;;
6651;SDS011;3362;50.892;10.692;2023-02-08T05:17:48;10.40;;;3.80;;
6651;SDS011;3362;50.892;10.692;2023-02-08T05:20:16;6.03;;;3.30;;
6651;SDS011;3362;50.892;10.692;2023-02-08T05:22:42;5.87;;;2.93;;
6651;SDS011;3362;50.892;10.692;2023-02-08T05:25:09;5.53;;;3.03;;
6651;SDS011;3362;50.892;10.692;2023-02-08T05:27:35;4.70;;;3.17;;
6651;SDS011;3362;50.892;10.692;2023-02-08T05:30:02;13.40;;;4.20;;
6651;SDS011;3362;50.892;10.692;2023-02-08T05:32:28;5.20;;;2.83;;
6651;SDS011;3362;50.892;10.692;2023-02-08T05:34:54;4.13;;;2.60;;
6651;SDS011;3362;50.892;10.692;2023-02-08T05:37:22;4.93;;;2.90;;
6651;SDS011;3362;50.892;10.692;2023-02-08T05:39:48;3.57;;;2.10;;
6651;SDS011;3362;50.892;10.692;2023-02-08T05:42:14;5.50;;;2.90;;
6651;SDS011;3362;50.892;10.692;2023-02-08T05:44:40;7.60;;;3.63;;
6651;SDS011;3362;50.892;10.692;2023-02-08T05:47:06;6.33;;;3.03;;
6651;SDS011;3362;50.892;10.692;2023-02-08T05:49:32;9.53;;;3.37;;
6651;SDS011;3362;50.892;10.692;2023-02-08T05:51:59;10.63;;;2.53;;
6651;SDS011;3362;50.892;10.692;2023-02-08T05:54:26;7.67;;;3.10;;
6651;SDS011;3362;50.892;10.692;2023-02-08T05:56:52;11.97;;;3.80;;
6651;SDS011;3362;50.892;10.692;2023-02-08T05:59:19;6.90;;;3.07;;
6651;SDS011;3362;50.892;10.692;2023-02-08T06:01:45;6.67;;;3.07;;
6651;SDS011;3362;50.892;10.692;2023-02-08T06:04:11;4.07;;;2.60;;
6651;SDS011;3362;50.892;10.692;2023-02-08T06:06:37;6.77;;;3.97;;
6651;SDS011;3362;50.892;10.692;2023-02-08T06:09:03;9.27;;;4.27;;
6651;SDS011;3362;50.892;10.692;2023-02-08T06:11:31;8.00;;;3.67;;
6651;SDS011;3362;50.892;10.692;2023-02-08T06:13:58;10.80;;;4.43;;
6651;SDS011;3362;50.892;10.692;2023-02-08T06:16:24;10.10;;;4.40;;
6651;SDS011;3362;50.892;10.692;2023-02-08T06:18:50;11.93;;;4.60;;
6651;SDS011;3362;50.892;10.692;2023-02-08T06:21:17;14.13;;;5.43;;
6651;SDS011;3362;50.892;10.692;2023-02-08T06:23:43;11.17;;;5.00;;
6651;SDS011;3362;50.892;10.692;2023-02-08T06:26:09;11.63;;;4.97;;
6651;SDS011;3362;50.892;10.692;2023-02-08T06:28:37;13.10;;;5.10;;
6651;SDS011;3362;50.892;10.692;2023-02-08T06:31:03;11.07;;;3.80;;
6651;SDS011;3362;50.892;10.692;2023-02-08T06:33:29;10.30;;;5.00;;
6651;SDS011;3362;50.892;10.692;2023-02-08T06:35:55;10.27;;;5.33;;
6651;SDS011;3362;50.892;10.692;2023-02-08T06:38:21;9.93;;;5.03;;
6651;SDS011;3362;50.892;10.692;2023-02-08T06:40:48;9.73;;;5.03;;
6651;SDS011;3362;50.892;10.692;2023-02-08T06:43:15;10.13;;;5.63;;
6651;SDS011;3362;50.892;10.692;2023-02-08T06:45:44;13.27;;;5.97;;
6651;SDS011;3362;50.892;10.692;2023-02-08T06:48:10;9.63;;;4.17;;
6651;SDS011;3362;50.892;10.692;2023-02-08T06:50:36;7.50;;;4.47;;
6651;SDS011;3362;50.892;10.692;2023-02-08T06:53:03;11.83;;;5.80;;
6651;SDS011;3362;50.892;10.692;2023-02-08T06:55:29;7.00;;;4.30;;
6651;SDS011;3362;50.892;10.692;2023-02-08T06:57:55;7.33;;;2.43;;
6651;SDS011;3362;50.892;10.692;2023-02-08T07:00:21;6.77;;;3.20;;
6651;SDS011;3362;50.892;10.692;2023-02-08T07:02:49;5.63;;;3.00;;
6651;SDS011;3362;50.892;10.692;2023-02-08T07:05:16;3.33;;;2.07;;
6651;SDS011;3362;50.892;10.692;2023-02-08T07:07:43;7.07;;;1.13;;
6651;SDS011;3362;50.892;10.692;2023-02-08T07:10:09;1.80;;;1.20;;
6651;SDS011;3362;50.892;10.692;2023-02-08T07:12:35;3.20;;;1.23;;
6651;SDS011;3362;50.892;10.692;2023-02-08T07:15:02;1.97;;;1.23;;
6651;SDS011;3362;50.892;10.692;2023-02-08T07:17:28;3.03;;;1.20;;
6651;SDS011;3362;50.892;10.692;2023-02-08T07:19:56;2.33;;;1.07;;
6651;SDS011;3362;50.892;10.692;2023-02-08T07:22:22;5.27;;;1.03;;
6651;SDS011;3362;50.892;10.692;2023-02-08T07:24:48;3.43;;;0.80;;
6651;SDS011;3362;50.892;10.692;2023-02-08T07:27:14;1.57;;;0.73;;
6651;SDS011;3362;50.892;10.692;2023-02-08T07:29:41;2.43;;;0.77;;
6651;SDS011;3362;50.892;10.692;2023-02-08T07:32:07;4.17;;;1.20;;
6651;SDS011;3362;50.892;10.692;2023-02-08T07:34:35;2.63;;;0.63;;
6651;SDS011;3362;50.892;10.692;2023-02-08T07:37:03;1.53;;;0.93;;
6651;SDS011;3362;50.892;10.692;2023-02-08T07:39:29;4.30;;;1.10;;
6651;SDS011;3362;50.892;10.692;2023-02-08T07:41:55;8.03;;;2.80;;
6651;SDS011;3362;50.892;10.692;2023-02-08T07:44:22;5.67;;;2.67;;
6651;SDS011;3362;50.892;10.692;2023-02-08T07:46:48;6.23;;;3.13;;
6651;SDS011;3362;50.892;10.692;2023-02-08T07:49:14;5.57;;;3.07;;
6651;SDS011;3362;50.892;10.692;2023-02-08T07:51:40;6.10;;;2.37;;
6651;SDS011;3362;50.892;10.692;2023-02-08T07:54:08;6.93;;;2.80;;
6651;SDS011;3362;50.892;10.692;2023-02-08T07:56:34;6.03;;;3.30;;
6651;SDS011;3362;50.892;10.692;2023-02-08T07:59:00;7.77;;;2.47;;
6651;SDS011;3362;50.892;10.692;2023-02-08T08:01:27;6.63;;;2.60;;
6651;SDS011;3362;50.892;10.692;2023-02-08T08:03:53;5.87;;;2.73;;
6651;SDS011;3362;50.892;10.692;2023-02-08T08:06:19;4.57;;;1.23;;
6651;SDS011;3362;50.892;10.692;2023-02-08T08:08:46;1.67;;;1.40;;
6651;SDS011;3362;50.892;10.692;2023-02-08T08:11:14;5.57;;;2.73;;
6651;SDS011;3362;50.892;10.692;2023-02-08T08:13:40;10.00;;;3.80;;
6651;SDS011;3362;50.892;10.692;2023-02-08T08:16:06;6.13;;;3.27;;
6651;SDS011;3362;50.892;10.692;2023-02-08T08:18:33;8.00;;;3.20;;
6651;SDS011;3362;50.892;10.692;2023-02-08T08:20:59;5.13;;;2.70;;
6651;SDS011;3362;50.892;10.692;2023-02-08T08:23:26;6.57;;;2.60;;
6651;SDS011;3362;50.892;10.692;2023-02-08T08:25:53;4.17;;;2.03;;
6651;SDS011;3362;50.892;10.692;2023-02-08T08:28:20;4.90;;;1.63;;
6651;SDS011;3362;50.892;10.692;2023-02-08T08:30:46;2.37;;;1.23;;
6651;SDS011;3362;50.892;10.692;2023-02-08T08:33:13;4.33;;;1.83;;
6651;SDS011;3362;50.892;10.692;2023-02-08T08:35:39;2.47;;;1.50;;
6651;SDS011;3362;50.892;10.692;2023-02-08T08:38:06;2.43;;;1.20;;
6651;SDS011;3362;50.892;10.692;2023-02-08T08:40:32;3.07;;;1.13;;
6651;SDS011;3362;50.892;10.692;2023-02-08T08:42:59;3.23;;;1.37;;
6651;SDS011;3362;50.892;10.692;2023-02-08T08:45:26;4.00;;;1.70;;
6651;SDS011;3362;50.892;10.692;2023-02-08T08:47:52;2.60;;;0.90;;
6651;SDS011;3362;50.892;10.692;2023-02-08T08:50:19;4.50;;;2.10;;
6651;SDS011;3362;50.892;10.692;2023-02-08T08:52:45;3.80;;;1.67;;
6651;SDS011;3362;50.892;10.692;2023-02-08T08:55:11;5.73;;;1.50;;
6651;SDS011;3362;50.892;10.692;2023-02-08T08:57:37;1.93;;;1.20;;
6651;SDS011;3362;50.892;10.692;2023-02-08T09:00:04;1.27;;;0.90;;
6651;SDS011;3362;50.892;10.692;2023-02-08T09:02:31;3.43;;;1.80;;
6651;SDS011;3362;50.892;10.692;2023-02-08T09:04:57;1.93;;;1.40;;
6651;SDS011;3362;50.892;10.692;2023-02-08T09:07:24;1.23;;;0.97;;
6651;SDS011;3362;50.892;10.692;2023-02-08T09:09:50;2.00;;;1.00;;
6651;SDS011;3362;50.892;10.692;2023-02-08T09:12:16;4.73;;;1.50;;
6651;SDS011;3362;50.892;10.692;2023-02-08T09:14:42;3.50;;;1.90;;
6651;SDS011;3362;50.892;10.692;2023-02-08T09:17:09;4.37;;;2.20;;
6651;SDS011;3362;50.892;10.692;2023-02-08T09:19:37;4.43;;;2.07;;
6651;SDS011;3362;50.892;10.692;2023-02-08T09:22:04;5.03;;;2.50;;
6651;SDS011;3362;50.892;10.692;2023-02-08T09:24:30;7.90;;;3.27;;
6651;SDS011;3362;50.892;10.692;2023-02-08T09:26:57;8.50;;;3.53;;
6651;SDS011;3362;50.892;10.692;2023-02-08T09:29:23;10.43;;;4.23;;
6651;SDS011;3362;50.892;10.692;2023-02-08T09:31:49;11.93;;;4.60;;
6651;SDS011;3362;50.892;10.692;2023-02-08T09:34:15;12.43;;;5.30;;
6651;SDS011;3362;50.892;10.692;2023-02-08T09:36:43;11.27;;;4.70;;
6651;SDS011;3362;50.892;10.692;2023-02-08T09:39:09;12.37;;;5.37;;
6651;SDS011;3362;50.892;10.692;2023-02-08T09:44:27;19.60;;;6.10;;
6651;SDS011;3362;50.892;10.692;2023-02-08T09:46:57;15.63;;;7.10;;
6651;SDS011;3362;50.892;10.692;2023-02-08T09:49:25;17.97;;;7.07;;
6651;SDS011;3362;50.892;10.692;2023-02-08T09:51:54;17.57;;;7.40;;
6651;SDS011;3362;50.892;10.692;2023-02-08T09:54:23;18.80;;;8.00;;
6651;SDS011;3362;50.892;10.692;2023-02-08T09:56:51;15.47;;;7.33;;
6651;SDS011;3362;50.892;10.692;2023-02-08T09:59:20;16.53;;;8.03;;
6651;SDS011;3362;50.892;10.692;2023-02-08T10:01:48;16.03;;;8.40;;
6651;SDS011;3362;50.892;10.692;2023-02-08T10:04:17;26.47;;;10.47;;
6651;SDS011;3362;50.892;10.692;2023-02-08T10:06:45;23.83;;;9.73;;
6651;SDS011;3362;50.892;10.692;2023-02-08T10:09:13;20.13;;;9.63;;
6651;SDS011;3362;50.892;10.692;2023-02-08T10:11:41;25.63;;;10.80;;
6651;SDS011;3362;50.892;10.692;2023-02-08T10:14:16;22.27;;;10.27;;
6651;SDS011;3362;50.892;10.692;2023-02-08T10:16:48;18.77;;;9.63;;
6651;SDS011;3362;50.892;10.692;2023-02-08T10:19:25;24.63;;;10.20;;
6651;SDS011;3362;50.892;10.692;2023-02-08T10:21:55;24.80;;;9.43;;
6651;SDS011;3362;50.892;10.692;2023-02-08T10:24:32;24.67;;;10.67;;
6651;SDS011;3362;50.892;10.692;2023-02-08T10:27:01;13.10;;;6.97;;
6651;SDS011;3362;50.892;10.692;2023-02-08T10:29:35;15.37;;;7.27;;
6651;SDS011;3362;50.892;10.692;2023-02-08T10:32:12;13.30;;;6.50;;
6651;SDS011;3362;50.892;10.692;2023-02-08T10:34:41;16.63;;;5.57;;
6651;SDS011;3362;50.892;10.692;2023-02-08T10:37:10;12.57;;;5.73;;
6651;SDS011;3362;50.892;10.692;2023-02-08T10:39:38;13.00;;;6.30;;
6651;SDS011;3362;50.892;10.692;2023-02-08T10:42:05;9.97;;;5.20;;
6651;SDS011;3362;50.892;10.692;2023-02-08T10:44:38;11.17;;;5.33;;
6651;SDS011;3362;50.892;10.692;2023-02-08T10:47:08;9.93;;;4.37;;
6651;SDS011;3362;50.892;10.692;2023-02-08T10:49:39;9.87;;;4.13;;
6651;SDS011;3362;50.892;10.692;2023-02-08T10:52:07;7.07;;;4.43;;
6651;SDS011;3362;50.892;10.692;2023-02-08T10:54:34;10.87;;;4.40;;
6651;SDS011;3362;50.892;10.692;2023-02-08T10:57:01;13.40;;;4.23;;
6651;SDS011;3362;50.892;10.692;2023-02-08T10:59:29;16.77;;;5.20;;
6651;SDS011;3362;50.892;10.692;2023-02-08T11:01:56;9.57;;;5.07;;
6651;SDS011;3362;50.892;10.692;2023-02-08T11:04:22;7.60;;;3.80;;
6651;SDS011;3362;50.892;10.692;2023-02-08T11:06:49;5.60;;;3.53;;
6651;SDS011;3362;50.892;10.692;2023-02-08T11:09:19;11.40;;;4.45;;
6651;SDS011;3362;50.892;10.692;2023-02-08T11:11:46;9.07;;;4.93;;
6651;SDS011;3362;50.892;10.692;2023-02-08T11:14:16;9.48;;;4.43;;
6651;SDS011;3362;50.892;10.692;2023-02-08T11:16:47;10.40;;;5.07;;
6651;SDS011;3362;50.892;10.692;2023-02-08T11:19:17;19.25;;;7.55;;
6651;SDS011;3362;50.892;10.692;2023-02-08T11:21:47;15.20;;;6.47;;
6651;SDS011;3362;50.892;10.692;2023-02-08T11:24:21;17.88;;;6.45;;
6651;SDS011;3362;50.892;10.692;2023-02-08T11:26:50;13.35;;;5.75;;
6651;SDS011;3362;50.892;10.692;2023-02-08T11:29:18;19.15;;;7.15;;
6651;SDS011;3362;50.892;10.692;2023-02-08T11:31:54;14.48;;;6.80;;
6651;SDS011;3362;50.892;10.692;2023-02-08T11:34:22;18.67;;;8.07;;
6651;SDS011;3362;50.892;10.692;2023-02-08T11:36:49;17.10;;;7.43;;
6651;SDS011;3362;50.892;10.692;2023-02-08T11:39:16;18.23;;;7.45;;
6651;SDS011;3362;50.892;10.692;2023-02-08T11:41:43;15.82;;;6.07;;
6651;SDS011;3362;50.892;10.692;2023-02-08T11:44:11;16.08;;;7.95;;
6651;SDS011;3362;50.892;10.692;2023-02-08T11:46:39;14.60;;;6.65;;
6651;SDS011;3362;50.892;10.692;2023-02-08T11:49:16;13.13;;;6.38;;
6651;SDS011;3362;50.892;10.692;2023-02-08T11:51:45;12.73;;;6.57;;
6651;SDS011;3362;50.892;10.692;2023-02-08T11:54:30;12.63;;;5.95;;
6651;SDS011;3362;50.892;10.692;2023-02-08T12:26:24;11.70;;;5.20;;
6651;SDS011;3362;50.892;10.692;2023-02-08T12:31:24;10.25;;;5.32;;
6651;SDS011;3362;50.892;10.692;2023-02-08T12:33:55;14.88;;;5.60;;
6651;SDS011;3362;50.892;10.692;2023-02-08T12:36:26;10.85;;;4.70;;
6651;SDS011;3362;50.892;10.692;2023-02-08T12:39:00;11.05;;;5.03;;
6651;SDS011;3362;50.892;10.692;2023-02-08T12:41:53;13.43;;;5.30;;
6651;SDS011;3362;50.892;10.692;2023-02-08T12:44:26;15.07;;;6.10;;
6651;SDS011;3362;50.892;10.692;2023-02-08T12:46:58;14.00;;;6.07;;
6651;SDS011;3362;50.892;10.692;2023-02-08T12:49:33;14.63;;;6.63;;
6651;SDS011;3362;50.892;10.692;2023-02-08T12:52:08;16.23;;;6.50;;
6651;SDS011;3362;50.892;10.692;2023-02-08T12:54:39;14.63;;;5.80;;
6651;SDS011;3362;50.892;10.692;2023-02-08T12:57:08;16.20;;;5.40;;
6651;SDS011;3362;50.892;10.692;2023-02-08T12:59:37;15.00;;;6.32;;
6651;SDS011;3362;50.892;10.692;2023-02-08T13:02:08;16.35;;;6.30;;
6651;SDS011;3362;50.892;10.692;2023-02-08T13:04:38;12.30;;;5.68;;
6651;SDS011;3362;50.892;10.692;2023-02-08T13:07:07;11.73;;;6.70;;
6651;SDS011;3362;50.892;10.692;2023-02-08T13:09:37;11.60;;;6.03;;
6651;SDS011;3362;50.892;10.692;2023-02-08T13:12:06;20.30;;;6.78;;
6651;SDS011;3362;50.892;10.692;2023-02-08T13:14:34;11.93;;;5.97;;
6651;SDS011;3362;50.892;10.692;2023-02-08T13:17:03;13.80;;;6.45;;
6651;SDS011;3362;50.892;10.692;2023-02-08T14:18:02;22.13;;;10.00;;
6651;SDS011;3362;50.892;10.692;2023-02-08T14:20:30;22.02;;;9.75;;
6651;SDS011;3362;50.892;10.692;2023-02-08T14:22:59;18.10;;;9.07;;
6651;SDS011;3362;50.892;10.692;2023-02-08T14:25:26;19.70;;;10.73;;
6651;SDS011;3362;50.892;10.692;2023-02-08T14:27:54;21.52;;;9.63;;
6651;SDS011;3362;50.892;10.692;2023-02-08T14:30:24;21.20;;;9.88;;
6651;SDS011;3362;50.892;10.692;2023-02-08T14:32:52;22.02;;;10.38;;
6651;SDS011;3362;50.892;10.692;2023-02-08T14:35:21;26.42;;;11.32;;
6651;SDS011;3362;50.892;10.692;2023-02-08T14:37:51;23.17;;;11.45;;
6651;SDS011;3362;50.892;10.692;2023-02-08T14:40:46;22.83;;;11.15;;
6651;SDS011;3362;50.892;10.692;2023-02-08T14:43:27;25.25;;;10.05;;
6651;SDS011;3362;50.892;10.692;2023-02-08T14:45:56;27.25;;;10.90;;
6651;SDS011;3362;50.892;10.692;2023-02-08T14:48:22;23.90;;;11.20;;
6651;SDS011;3362;50.892;10.692;2023-02-08T14:50:51;30.52;;;11.70;;
6651;SDS011;3362;50.892;10.692;2023-02-08T14:53:30;30.23;;;12.95;;
6651;SDS011;3362;50.892;10.692;2023-02-08T14:55:58;25.75;;;13.25;;
6651;SDS011;3362;50.892;10.692;2023-02-08T14:58:27;24.77;;;11.40;;
6651;SDS011;3362;50.892;10.692;2023-02-08T15:00:54;27.27;;;12.75;;
6651;SDS011;3362;50.892;10.692;2023-02-08T15:03:21;30.42;;;12.48;;
6651;SDS011;3362;50.892;10.692;2023-02-08T15:05:59;25.70;;;12.02;;
6651;SDS011;3362;50.892;10.692;2023-02-08T15:08:28;22.88;;;11.93;;
6651;SDS011;3362;50.892;10.692;2023-02-08T15:10:54;26.52;;;12.77;;
6651;SDS011;3362;50.892;10.692;2023-02-08T15:13:21;28.17;;;13.07;;
6651;SDS011;3362;50.892;10.692;2023-02-08T15:15:49;29.38;;;13.32;;
6651;SDS011;3362;50.892;10.692;2023-02-08T15:18:17;28.27;;;13.73;;
6651;SDS011;3362;50.892;10.692;2023-02-08T15:20:44;33.88;;;13.55;;
6651;SDS011;3362;50.892;10.692;2023-02-08T15:47:34;30.40;;;17.30;;
6651;SDS011;3362;50.892;10.692;2023-02-08T16:24:18;29.60;;;13.38;;
6651;SDS011;3362;50.892;10.692;2023-02-08T16:26:45;35.40;;;13.27;;
6651;SDS011;3362;50.892;10.692;2023-02-08T16:29:15;28.45;;;12.48;;
6651;SDS011;3362;50.892;10.692;2023-02-08T16:31:43;34.20;;;12.45;;
6651;SDS011;3362;50.892;10.692;2023-02-08T16:34:12;31.92;;;12.13;;
6651;SDS011;3362;50.892;10.692;2023-02-08T16:36:40;32.17;;;13.05;;
6651;SDS011;3362;50.892;10.692;2023-02-08T16:39:20;40.08;;;13.10;;
6651;SDS011;3362;50.892;10.692;2023-02-08T16:42:00;30.30;;;13.05;;
6651;SDS011;3362;50.892;10.692;2023-02-08T16:44:27;28.30;;;12.38;;
6651;SDS011;3362;50.892;10.692;2023-02-08T16:46:54;30.38;;;12.82;;
6651;SDS011;3362;50.892;10.692;2023-02-08T16:49:20;33.72;;;13.02;;
6651;SDS011;3362;50.892;10.692;2023-02-08T16:51:47;23.77;;;10.55;;
